Time,TemperatureF,DewpointF,PressureIn,WindDirection,WindDirectionDegrees,WindSpeedMPH,WindSpeedGustMPH,Humidity,HourlyPrecipIn,Conditions,Clouds,dailyrainin,SolarRadiationWatts/m^2,SoftwareType,DateUTC
2013-08-25 00:00:00,63.6,55.5,29.91,ESE,107,0.0,3.0,75,0.00,,---,0.00,0.00,VWS V14.01,2013-08-24 22:00:00,
2013-08-25 00:10:00,63.4,55.7,29.91,ESE,107,0.0,0.0,76,0.00,,---,0.00,0.00,VWS V14.01,2013-08-24 22:10:00,
2013-08-25 00:15:00,63.3,55.6,29.91,ESE,107,0.0,0.0,76,0.00,,---,0.00,0.00,VWS V14.01,2013-08-24 22:15:00,
2013-08-25 00:20:00,63.2,55.5,29.91,ESE,107,0.0,0.0,76,0.00,,---,0.00,0.00,VWS V14.01,2013-08-24 22:20:00,
2013-08-25 00:25:00,63.2,55.9,29.91,ESE,107,2.0,3.0,77,0.00,,---,0.00,0.00,VWS V14.01,2013-08-24 22:25:00,
2013-08-25 00:35:00,63.1,55.8,29.91,ESE,107,0.0,0.0,77,0.00,,---,0.00,0.00,VWS V14.01,2013-08-24 22:35:00,
2013-08-25 00:40:00,63.2,55.9,29.91,ESE,107,0.0,0.0,77,0.00,,---,0.00,0.00,VWS V14.01,2013-08-24 22:40:00,
2013-08-25 00:45:00,63.1,55.8,29.91,ESE,106,2.0,2.0,77,0.00,,---,0.00,0.00,VWS V14.01,2013-08-24 22:45:00,
2013-08-25 00:50:00,63.1,56.1,29.91,East,91,0.0,4.0,78,0.00,,---,0.00,0.00,VWS V14.01,2013-08-24 22:50:00,
2013-08-25 00:55:00,63.1,55.8,29.91,ENE,68,0.0,4.0,77,0.00,,---,0.00,0.00,VWS V14.01,2013-08-24 22:55:00,
2013-08-25 01:00:00,63.1,55.8,29.90,ENE,67,0.0,0.0,77,0.00,,---,0.00,0.00,VWS V14.01,2013-08-24 23:00:00,
2013-08-25 01:10:00,62.9,55.9,29.90,ENE,74,2.0,2.0,78,0.00,,---,0.00,0.00,VWS V14.01,2013-08-24 23:10:00,
2013-08-25 01:15:00,62.8,55.8,29.90,ENE,74,2.0,4.0,78,0.00,,---,0.00,0.00,VWS V14.01,2013-08-24 23:15:00,
2013-08-25 01:25:00,62.5,55.6,29.90,ENE,74,0.0,0.0,78,0.00,,---,0.00,0.00,VWS V14.01,2013-08-24 23:25:00,
2013-08-25 01:35:00,62.2,55.6,29.90,ENE,74,0.0,0.0,79,0.00,,---,0.00,0.00,VWS V14.01,2013-08-24 23:35:00,
2013-08-25 01:45:00,62.0,55.4,29.90,East,98,0.0,0.0,79,0.00,,---,0.00,0.00,VWS V14.01,2013-08-24 23:45:00,
2013-08-25 01:50:00,61.9,55.3,29.90,East,98,0.0,3.0,79,0.00,,---,0.00,0.00,VWS V14.01,2013-08-24 23:50:00,
2013-08-25 01:55:00,61.8,55.2,29.90,East,88,0.0,3.0,79,0.00,,---,0.00,0.00,VWS V14.01,2013-08-24 23:55:00,
2013-08-25 02:00:00,61.8,55.2,29.90,East,88,0.0,2.0,79,0.00,,---,0.00,0.00,VWS V14.01,2013-08-25 00:00:00,
2013-08-25 02:10:00,61.6,55.0,29.90,East,87,0.0,1.0,79,0.00,,---,0.00,0.00,VWS V14.01,2013-08-25 00:10:00,
2013-08-25 02:15:00,61.5,54.9,29.90,ENE,74,0.0,0.0,79,0.00,,---,0.00,0.00,VWS V14.01,2013-08-25 00:15:00,
2013-08-25 02:20:00,61.4,54.5,29.90,ENE,74,0.0,3.0,78,0.00,,---,0.00,0.00,VWS V14.01,2013-08-25 00:20:00,
2013-08-25 02:30:00,61.1,54.2,29.90,ENE,74,3.0,3.0,78,0.00,,---,0.00,0.00,VWS V14.01,2013-08-25 00:30:00,
2013-08-25 02:35:00,60.9,54.0,29.90,ENE,74,3.0,3.0,78,0.00,,---,0.00,0.00,VWS V14.01,2013-08-25 00:35:00,
2013-08-25 02:40:00,60.8,54.3,29.90,ENE,65,0.0,4.0,79,0.00,,---,0.00,0.00,VWS V14.01,2013-08-25 00:40:00,
2013-08-25 02:50:00,60.4,53.9,29.90,ENE,66,0.0,5.0,79,0.00,,---,0.00,0.00,VWS V14.01,2013-08-25 00:50:00,
2013-08-25 02:55:00,60.2,53.7,29.90,ENE,73,4.0,5.0,79,0.00,,---,0.00,0.00,VWS V14.01,2013-08-25 00:55:00,
2013-08-25 03:00:00,60.1,53.6,29.89,ENE,63,0.0,4.0,79,0.00,,---,0.00,0.00,VWS V14.01,2013-08-25 01:00:00,
2013-08-25 03:10:00,59.9,53.4,29.89,ENE,70,0.0,4.0,79,0.00,,---,0.00,0.00,VWS V14.01,2013-08-25 01:10:00,
2013-08-25 03:15:00,59.9,53.4,29.88,ENE,71,0.0,3.0,79,0.00,,---,0.00,0.00,VWS V14.01,2013-08-25 01:15:00,
2013-08-25 03:20:00,59.8,53.6,29.88,ENE,71,0.0,0.0,80,0.00,,---,0.00,0.00,VWS V14.01,2013-08-25 01:20:00,
2013-08-25 03:25:00,59.8,53.6,29.88,ENE,71,0.0,0.0,80,0.00,,---,0.00,0.00,VWS V14.01,2013-08-25 01:25:00,
2013-08-25 03:35:00,59.8,53.3,29.88,ENE,69,3.0,5.0,79,0.00,,---,0.00,0.00,VWS V14.01,2013-08-25 01:35:00,
2013-08-25 03:40:00,59.8,53.3,29.88,ENE,69,0.0,1.0,79,0.00,,---,0.00,0.00,VWS V14.01,2013-08-25 01:40:00,
2013-08-25 03:50:00,59.9,53.4,29.88,East,83,4.0,4.0,79,0.00,,---,0.00,0.00,VWS V14.01,2013-08-25 01:50:00,
2013-08-25 03:55:00,60.0,53.1,29.88,East,86,5.0,8.0,78,0.00,,---,0.00,0.00,VWS V14.01,2013-08-25 01:55:00,
2013-08-25 04:00:00,60.1,52.9,29.88,East,90,4.0,6.0,77,0.00,,---,0.00,0.00,VWS V14.01,2013-08-25 02:00:00,
2013-08-25 04:10:00,60.1,52.5,29.88,ESE,106,0.0,10.0,76,0.00,,---,0.00,0.00,VWS V14.01,2013-08-25 02:10:00,
2013-08-25 04:15:00,60.1,52.5,29.88,ESE,105,0.0,6.0,76,0.00,,---,0.00,0.00,VWS V14.01,2013-08-25 02:15:00,
2013-08-25 04:20:00,60.2,52.6,29.88,ENE,67,0.0,7.0,76,0.00,,---,0.00,0.00,VWS V14.01,2013-08-25 02:20:00,
2013-08-25 04:30:00,60.2,52.3,29.87,ENE,67,0.0,9.0,75,0.00,,---,0.00,0.00,VWS V14.01,2013-08-25 02:30:00,
2013-08-25 04:40:00,60.3,52.3,29.87,ESE,106,0.0,7.0,75,0.00,,---,0.00,0.00,VWS V14.01,2013-08-25 02:40:00,
2013-08-25 04:45:00,60.2,52.3,29.87,East,101,0.0,6.0,75,0.00,,---,0.00,0.00,VWS V14.01,2013-08-25 02:45:00,
2013-08-25 04:50:00,60.2,52.3,29.87,East,85,5.0,7.0,75,0.00,,---,0.00,0.00,VWS V14.01,2013-08-25 02:50:00,
2013-08-25 04:55:00,60.2,52.3,29.87,ENE,69,5.0,7.0,75,0.00,,---,0.00,0.00,VWS V14.01,2013-08-25 02:55:00,
2013-08-25 05:00:00,60.2,52.3,29.87,East,90,7.0,9.0,75,0.00,,---,0.00,0.00,VWS V14.01,2013-08-25 03:00:00,
2013-08-25 05:10:00,60.2,52.3,29.87,ENE,75,3.0,5.0,75,0.00,,---,0.00,0.00,VWS V14.01,2013-08-25 03:10:00,
2013-08-25 05:15:00,60.2,51.9,29.86,ESE,117,2.0,6.0,74,0.00,,---,0.00,0.00,VWS V14.01,2013-08-25 03:15:00,
2013-08-25 05:20:00,60.2,51.9,29.86,East,101,5.0,6.0,74,0.00,,---,0.00,0.00,VWS V14.01,2013-08-25 03:20:00,
2013-08-25 05:25:00,60.1,51.8,29.86,ENE,74,4.0,9.0,74,0.00,,---,0.00,0.00,VWS V14.01,2013-08-25 03:25:00,
2013-08-25 05:30:00,60.1,51.8,29.86,East,86,3.0,6.0,74,0.00,,---,0.00,0.00,VWS V14.01,2013-08-25 03:30:00,
2013-08-25 05:35:00,60.1,51.8,29.86,East,93,6.0,6.0,74,0.00,,---,0.00,0.00,VWS V14.01,2013-08-25 03:35:00,
2013-08-25 05:40:00,60.0,51.7,29.86,East,87,5.0,11.0,74,0.00,,---,0.00,0.00,VWS V14.01,2013-08-25 03:40:00,
2013-08-25 05:45:00,59.9,52.0,29.86,ENE,75,1.0,10.0,75,0.00,,---,0.00,0.00,VWS V14.01,2013-08-25 03:45:00,
2013-08-25 05:50:00,59.9,52.0,29.86,East,80,3.0,6.0,75,0.00,,---,0.00,0.00,VWS V14.01,2013-08-25 03:50:00,
2013-08-25 05:55:00,59.9,52.0,29.86,ENE,78,6.0,10.0,75,0.00,,---,0.00,0.00,VWS V14.01,2013-08-25 03:55:00,
2013-08-25 06:00:00,59.8,51.9,29.86,ENE,68,5.0,9.0,75,0.00,,---,0.00,0.00,VWS V14.01,2013-08-25 04:00:00,
2013-08-25 06:05:00,59.8,51.9,29.86,East,98,4.0,6.0,75,0.00,,---,0.00,0.00,VWS V14.01,2013-08-25 04:05:00,
2013-08-25 06:10:00,59.7,51.8,29.86,East,92,2.0,6.0,75,0.00,,---,0.00,0.00,VWS V14.01,2013-08-25 04:10:00,
2013-08-25 06:20:00,59.7,52.1,29.86,ENE,59,5.0,7.0,76,0.00,,---,0.00,0.00,VWS V14.01,2013-08-25 04:20:00,
2013-08-25 06:30:00,59.7,52.1,29.86,East,101,4.0,5.0,76,0.00,,---,0.00,5.00,VWS V14.01,2013-08-25 04:30:00,
2013-08-25 06:40:00,59.7,52.1,29.86,ENE,69,4.0,11.0,76,0.00,,---,0.00,0.00,VWS V14.01,2013-08-25 04:40:00,
2013-08-25 06:45:00,59.7,52.1,29.87,ESE,122,5.0,5.0,76,0.00,,---,0.00,5.00,VWS V14.01,2013-08-25 04:45:00,
2013-08-25 06:50:00,59.7,52.1,29.87,ESE,109,0.0,4.0,76,0.00,,---,0.00,5.00,VWS V14.01,2013-08-25 04:50:00,
2013-08-25 06:55:00,59.8,52.2,29.87,ENE,65,0.0,1.0,76,0.00,,---,0.00,5.00,VWS V14.01,2013-08-25 04:55:00,
2013-08-25 07:00:00,59.7,52.1,29.86,ENE,64,3.0,4.0,76,0.00,,---,0.00,7.00,VWS V14.01,2013-08-25 05:00:00,
2013-08-25 07:05:00,59.7,52.1,29.86,East,80,0.0,1.0,76,0.00,,---,0.00,9.00,VWS V14.01,2013-08-25 05:05:00,
2013-08-25 07:10:00,59.8,52.2,29.86,East,80,0.0,3.0,76,0.00,,---,0.00,11.00,VWS V14.01,2013-08-25 05:10:00,
2013-08-25 07:20:00,59.8,52.2,29.85,ENE,63,3.0,4.0,76,0.00,,---,0.00,12.00,VWS V14.01,2013-08-25 05:20:00,
2013-08-25 07:30:00,59.8,52.2,29.86,ENE,75,2.0,4.0,76,0.00,,---,0.00,14.00,VWS V14.01,2013-08-25 05:30:00,
2013-08-25 07:35:00,59.8,52.2,29.86,SE,132,7.0,7.0,76,0.00,,---,0.00,18.00,VWS V14.01,2013-08-25 05:35:00,
2013-08-25 07:40:00,59.8,52.2,29.86,East,88,3.0,5.0,76,0.00,,---,0.00,19.00,VWS V14.01,2013-08-25 05:40:00,
2013-08-25 07:45:00,59.8,52.2,29.86,East,91,5.0,7.0,76,0.00,,---,0.00,19.00,VWS V14.01,2013-08-25 05:45:00,
2013-08-25 07:50:00,59.8,51.9,29.86,East,80,5.0,11.0,75,0.00,,---,0.00,23.00,VWS V14.01,2013-08-25 05:50:00,
2013-08-25 07:55:00,59.9,52.0,29.86,ENE,77,0.0,10.0,75,0.00,,---,0.00,28.00,VWS V14.01,2013-08-25 05:55:00,
2013-08-25 08:00:00,59.9,52.0,29.86,ESE,109,7.0,7.0,75,0.00,,---,0.00,32.00,VWS V14.01,2013-08-25 06:00:00,
2013-08-25 08:10:00,60.0,52.1,29.86,East,99,0.0,3.0,75,0.00,,---,0.00,28.00,VWS V14.01,2013-08-25 06:10:00,
2013-08-25 08:15:00,60.1,52.2,29.86,ENE,76,4.0,6.0,75,0.00,,---,0.00,23.00,VWS V14.01,2013-08-25 06:15:00,
2013-08-25 08:20:00,60.1,52.2,29.86,ENE,75,5.0,6.0,75,0.00,,---,0.00,26.00,VWS V14.01,2013-08-25 06:20:00,
2013-08-25 08:25:00,60.1,52.2,29.86,ENE,59,0.0,5.0,75,0.00,,---,0.00,23.00,VWS V14.01,2013-08-25 06:25:00,
2013-08-25 08:30:00,60.1,52.5,29.86,ENE,60,6.0,9.0,76,0.00,,---,0.00,28.00,VWS V14.01,2013-08-25 06:30:00,
2013-08-25 08:40:00,60.0,52.4,29.86,ESE,109,4.0,6.0,76,0.00,,---,0.00,65.00,VWS V14.01,2013-08-25 06:40:00,
2013-08-25 08:45:00,60.0,52.4,29.85,ENE,59,2.0,7.0,76,0.00,,---,0.00,77.00,VWS V14.01,2013-08-25 06:45:00,
2013-08-25 08:50:00,60.1,52.5,29.85,ENE,76,4.0,7.0,76,0.00,,---,0.00,63.00,VWS V14.01,2013-08-25 06:50:00,
2013-08-25 08:55:00,60.1,52.2,29.85,ENE,69,5.0,10.0,75,0.00,,---,0.00,56.00,VWS V14.01,2013-08-25 06:55:00,
2013-08-25 09:00:00,60.2,52.6,29.86,East,88,0.0,7.0,76,0.00,,---,0.00,54.00,VWS V14.01,2013-08-25 07:00:00,
2013-08-25 09:10:00,60.3,52.7,29.86,ESE,115,0.0,4.0,76,0.00,,---,0.00,42.00,VWS V14.01,2013-08-25 07:10:00,
2013-08-25 09:20:00,60.3,52.7,29.86,ENE,78,2.0,6.0,76,0.00,,---,0.00,42.00,VWS V14.01,2013-08-25 07:20:00,
2013-08-25 09:30:00,60.2,53.0,29.86,ESE,105,5.0,10.0,77,0.00,,---,0.00,54.00,VWS V14.01,2013-08-25 07:30:00,
2013-08-25 09:35:00,60.2,53.0,29.86,East,91,0.0,5.0,77,0.00,,---,0.00,67.00,VWS V14.01,2013-08-25 07:35:00,
2013-08-25 09:40:00,60.2,53.0,29.86,ENE,71,3.0,10.0,77,0.00,,---,0.00,81.00,VWS V14.01,2013-08-25 07:40:00,
2013-08-25 09:50:00,60.4,52.8,29.85,East,99,2.0,3.0,76,0.00,,---,0.00,83.00,VWS V14.01,2013-08-25 07:50:00,
2013-08-25 10:00:00,60.7,52.7,29.86,East,90,5.0,10.0,75,0.00,,---,0.00,62.00,VWS V14.01,2013-08-25 08:00:00,
2013-08-25 10:10:00,60.8,52.5,29.86,ENE,64,6.0,10.0,74,0.00,,---,0.00,49.00,VWS V14.01,2013-08-25 08:10:00,
2013-08-25 10:20:00,60.9,52.9,29.86,East,87,3.0,4.0,75,0.00,,---,0.00,42.00,VWS V14.01,2013-08-25 08:20:00,
2013-08-25 10:30:00,60.8,53.2,29.86,East,83,3.0,7.0,76,0.00,,---,0.00,60.00,VWS V14.01,2013-08-25 08:30:00,
2013-08-25 10:40:00,60.7,53.5,29.86,East,84,2.0,4.0,77,0.00,,---,0.00,47.00,VWS V14.01,2013-08-25 08:40:00,
2013-08-25 10:45:00,60.7,53.5,29.86,NE,49,4.0,6.0,77,0.00,,---,0.00,40.00,VWS V14.01,2013-08-25 08:45:00,
2013-08-25 10:50:00,60.8,53.2,29.86,ENE,75,7.0,9.0,76,0.00,,---,0.00,47.00,VWS V14.01,2013-08-25 08:50:00,
2013-08-25 11:00:00,61.0,53.4,29.85,ENE,71,10.0,10.0,76,0.00,,---,0.00,58.00,VWS V14.01,2013-08-25 09:00:00,
2013-08-25 11:10:00,61.1,53.1,29.85,East,88,2.0,11.0,75,0.00,,---,0.00,60.00,VWS V14.01,2013-08-25 09:10:00,
2013-08-25 11:15:00,61.2,53.2,29.85,East,92,3.0,10.0,75,0.00,,---,0.00,74.00,VWS V14.01,2013-08-25 09:15:00,
2013-08-25 11:20:00,61.3,53.7,29.85,ENE,65,0.0,6.0,76,0.00,,---,0.00,102.00,VWS V14.01,2013-08-25 09:20:00,
2013-08-25 11:30:00,61.4,53.8,29.85,ENE,78,3.0,6.0,76,0.00,,---,0.00,67.00,VWS V14.01,2013-08-25 09:30:00,
2013-08-25 11:35:00,61.5,53.9,29.85,East,96,3.0,6.0,76,0.00,,---,0.00,76.00,VWS V14.01,2013-08-25 09:35:00,
2013-08-25 11:40:00,61.6,53.6,29.85,East,94,3.0,6.0,75,0.00,,---,0.00,72.00,VWS V14.01,2013-08-25 09:40:00,
2013-08-25 11:50:00,61.7,54.4,29.86,East,95,3.0,10.0,77,0.00,,---,0.00,53.00,VWS V14.01,2013-08-25 09:50:00,
2013-08-25 11:55:00,61.7,53.3,29.86,East,87,5.0,10.0,74,0.00,,---,0.00,49.00,VWS V14.01,2013-08-25 09:55:00,
2013-08-25 12:00:00,61.8,53.4,29.86,ESE,109,7.0,10.0,74,0.00,,---,0.00,67.00,VWS V14.01,2013-08-25 10:00:00,
2013-08-25 12:10:00,61.8,53.4,29.86,East,80,5.0,13.0,74,0.00,,---,0.00,116.00,VWS V14.01,2013-08-25 10:10:00,
2013-08-25 12:15:00,61.9,53.5,29.85,ENE,72,6.0,10.0,74,0.00,,---,0.00,137.00,VWS V14.01,2013-08-25 10:15:00,
2013-08-25 12:20:00,62.2,53.8,29.85,ENE,72,4.0,11.0,74,0.00,,---,0.00,171.00,VWS V14.01,2013-08-25 10:20:00,
2013-08-25 12:30:00,62.8,53.7,29.85,East,84,3.0,9.0,72,0.00,,---,0.00,172.00,VWS V14.01,2013-08-25 10:30:00,
2013-08-25 12:35:00,63.0,53.8,29.85,ESE,102,4.0,14.0,72,0.00,,---,0.00,146.00,VWS V14.01,2013-08-25 10:35:00,
2013-08-25 12:40:00,63.1,53.9,29.85,ESE,107,4.0,11.0,72,0.00,,---,0.00,111.00,VWS V14.01,2013-08-25 10:40:00,
2013-08-25 12:50:00,63.1,53.9,29.85,ESE,105,10.0,11.0,72,0.00,,---,0.00,76.00,VWS V14.01,2013-08-25 10:50:00,
2013-08-25 12:55:00,63.1,54.3,29.85,East,88,5.0,9.0,73,0.00,,---,0.00,69.00,VWS V14.01,2013-08-25 10:55:00,
2013-08-25 13:00:00,63.2,54.4,29.86,ENE,78,8.0,9.0,73,0.00,,---,0.00,69.00,VWS V14.01,2013-08-25 11:00:00,
2013-08-25 13:10:00,63.2,54.0,29.86,ESE,106,6.0,12.0,72,0.00,,---,0.00,86.00,VWS V14.01,2013-08-25 11:10:00,
2013-08-25 13:15:00,63.3,54.1,29.86,ENE,76,7.0,11.0,72,0.00,,---,0.00,97.00,VWS V14.01,2013-08-25 11:15:00,
2013-08-25 13:25:00,63.3,53.8,29.86,ENE,67,9.0,14.0,71,0.00,,---,0.00,98.00,VWS V14.01,2013-08-25 11:25:00,
2013-08-25 13:30:00,63.3,54.1,29.86,East,88,9.0,12.0,72,0.00,,---,0.00,113.00,VWS V14.01,2013-08-25 11:30:00,
2013-08-25 13:35:00,63.3,54.5,29.86,East,90,4.0,14.0,73,0.00,,---,0.00,130.00,VWS V14.01,2013-08-25 11:35:00,
2013-08-25 13:40:00,63.1,54.7,29.86,ENE,74,3.0,14.0,74,0.00,,---,0.00,123.00,VWS V14.01,2013-08-25 11:40:00,
2013-08-25 13:45:00,62.8,54.4,29.87,East,79,8.0,14.0,74,0.00,,---,0.00,100.00,VWS V14.01,2013-08-25 11:45:00,
2013-08-25 13:50:00,62.5,54.5,29.87,ENE,72,10.0,16.0,75,0.00,,---,0.00,98.00,VWS V14.01,2013-08-25 11:50:00,
2013-08-25 14:00:00,62.4,55.1,29.87,East,79,4.0,9.0,77,0.00,,---,0.00,107.00,VWS V14.01,2013-08-25 12:00:00,
2013-08-25 14:10:00,62.1,54.8,29.87,ESE,103,5.0,15.0,77,0.00,,---,0.00,144.00,VWS V14.01,2013-08-25 12:10:00,
2013-08-25 14:15:00,62.0,55.1,29.87,East,79,1.0,13.0,78,0.00,,---,0.00,123.00,VWS V14.01,2013-08-25 12:15:00,
2013-08-25 14:20:00,62.0,55.1,29.87,ENE,76,10.0,11.0,78,0.00,,---,0.00,98.00,VWS V14.01,2013-08-25 12:20:00,
2013-08-25 14:30:00,62.0,54.7,29.86,ESE,102,7.0,16.0,77,0.00,,---,0.00,74.00,VWS V14.01,2013-08-25 12:30:00,
2013-08-25 14:40:00,61.5,55.3,29.86,ENE,73,4.0,13.0,80,0.00,,---,0.00,97.00,VWS V14.01,2013-08-25 12:40:00,
2013-08-25 14:45:00,61.0,55.5,29.87,ESE,102,7.0,13.0,82,0.01,,---,0.01,76.00,VWS V14.01,2013-08-25 12:45:00,
2013-08-25 14:55:00,60.1,55.6,29.87,ENE,75,6.0,9.0,85,0.02,,---,0.02,113.00,VWS V14.01,2013-08-25 12:55:00,
2013-08-25 15:00:00,59.8,55.6,29.87,ENE,74,11.0,13.0,86,0.02,,---,0.02,102.00,VWS V14.01,2013-08-25 13:00:00,
2013-08-25 15:10:00,59.3,55.8,29.87,ENE,72,2.0,12.0,88,0.02,,---,0.02,135.00,VWS V14.01,2013-08-25 13:10:00,
2013-08-25 15:15:00,59.3,56.1,29.87,East,87,16.0,16.0,89,0.02,,---,0.02,178.00,VWS V14.01,2013-08-25 13:15:00,
2013-08-25 15:20:00,59.4,56.2,29.87,East,84,10.0,13.0,89,0.02,,---,0.02,171.00,VWS V14.01,2013-08-25 13:20:00,
2013-08-25 15:30:00,59.6,56.7,29.86,ENE,74,7.0,14.0,90,0.03,,---,0.03,165.00,VWS V14.01,2013-08-25 13:30:00,
2013-08-25 15:35:00,59.7,56.8,29.86,East,80,8.0,14.0,90,0.03,,---,0.03,148.00,VWS V14.01,2013-08-25 13:35:00,
2013-08-25 15:40:00,59.7,56.8,29.86,ENE,72,14.0,15.0,90,0.03,,---,0.03,130.00,VWS V14.01,2013-08-25 13:40:00,
2013-08-25 15:45:00,59.7,56.8,29.87,ENE,61,4.0,11.0,90,0.03,,---,0.03,114.00,VWS V14.01,2013-08-25 13:45:00,
2013-08-25 15:50:00,59.7,56.8,29.87,East,98,5.0,10.0,90,0.02,,---,0.03,90.00,VWS V14.01,2013-08-25 13:50:00,
2013-08-25 15:55:00,59.7,57.1,29.87,East,93,4.0,12.0,91,0.02,,---,0.03,84.00,VWS V14.01,2013-08-25 13:55:00,
2013-08-25 16:00:00,59.7,57.1,29.87,ESE,109,9.0,9.0,91,0.02,,---,0.03,88.00,VWS V14.01,2013-08-25 14:00:00,
2013-08-25 16:10:00,59.5,56.9,29.87,East,90,7.0,9.0,91,0.02,,---,0.04,53.00,VWS V14.01,2013-08-25 14:10:00,
2013-08-25 16:15:00,59.4,56.8,29.87,East,84,7.0,10.0,91,0.02,,---,0.04,56.00,VWS V14.01,2013-08-25 14:15:00,
2013-08-25 16:25:00,59.4,56.8,29.87,ENE,74,6.0,12.0,91,0.02,,---,0.04,76.00,VWS V14.01,2013-08-25 14:25:00,
2013-08-25 16:30:00,59.4,57.1,29.88,ESE,107,6.0,11.0,92,0.02,,---,0.05,65.00,VWS V14.01,2013-08-25 14:30:00,
2013-08-25 16:40:00,59.4,57.1,29.88,East,86,5.0,10.0,92,0.02,,---,0.05,51.00,VWS V14.01,2013-08-25 14:40:00,
2013-08-25 16:45:00,59.4,57.1,29.88,East,80,7.0,11.0,92,0.02,,---,0.06,35.00,VWS V14.01,2013-08-25 14:45:00,
2013-08-25 16:50:00,59.4,57.1,29.88,East,82,10.0,11.0,92,0.02,,---,0.06,35.00,VWS V14.01,2013-08-25 14:50:00,
2013-08-25 17:00:00,59.3,57.0,29.88,East,99,4.0,11.0,92,0.03,,---,0.06,39.00,VWS V14.01,2013-08-25 15:00:00,
2013-08-25 17:05:00,59.3,57.0,29.88,ESE,110,6.0,12.0,92,0.03,,---,0.06,47.00,VWS V14.01,2013-08-25 15:05:00,
2013-08-25 17:15:00,59.2,56.9,29.88,East,86,4.0,12.0,92,0.03,,---,0.07,60.00,VWS V14.01,2013-08-25 15:15:00,
2013-08-25 17:25:00,59.1,56.8,29.88,ESE,106,4.0,10.0,92,0.04,,---,0.08,58.00,VWS V14.01,2013-08-25 15:25:00,
2013-08-25 17:30:00,59.2,56.9,29.88,NE,42,4.0,9.0,92,0.04,,---,0.08,49.00,VWS V14.01,2013-08-25 15:30:00,
2013-08-25 17:40:00,59.2,56.9,29.88,ENE,77,5.0,10.0,92,0.04,,---,0.09,42.00,VWS V14.01,2013-08-25 15:40:00,
2013-08-25 17:45:00,59.2,56.9,29.88,ESE,105,5.0,7.0,92,0.04,,---,0.09,44.00,VWS V14.01,2013-08-25 15:45:00,
2013-08-25 17:50:00,59.2,56.9,29.88,East,98,1.0,7.0,92,0.03,,---,0.09,32.00,VWS V14.01,2013-08-25 15:50:00,
2013-08-25 17:55:00,59.2,57.2,29.88,ENE,68,5.0,6.0,93,0.03,,---,0.09,33.00,VWS V14.01,2013-08-25 15:55:00,
2013-08-25 18:00:00,59.0,57.0,29.88,East,81,6.0,6.0,93,0.04,,---,0.09,26.00,VWS V14.01,2013-08-25 16:00:00,
2013-08-25 18:10:00,59.0,57.0,29.88,ENE,72,5.0,7.0,93,0.04,,---,0.10,25.00,VWS V14.01,2013-08-25 16:10:00,
2013-08-25 18:15:00,59.0,57.0,29.88,ENE,72,7.0,7.0,93,0.03,,---,0.10,30.00,VWS V14.01,2013-08-25 16:15:00,
2013-08-25 18:25:00,59.0,57.0,29.88,East,82,4.0,6.0,93,0.04,,---,0.11,32.00,VWS V14.01,2013-08-25 16:25:00,
2013-08-25 18:30:00,59.0,57.0,29.88,East,84,6.0,9.0,93,0.03,,---,0.11,28.00,VWS V14.01,2013-08-25 16:30:00,
2013-08-25 18:40:00,59.0,57.0,29.88,ENE,76,3.0,11.0,93,0.03,,---,0.12,23.00,VWS V14.01,2013-08-25 16:40:00,
2013-08-25 18:45:00,59.0,57.0,29.89,East,90,3.0,6.0,93,0.03,,---,0.12,19.00,VWS V14.01,2013-08-25 16:45:00,
2013-08-25 18:50:00,59.0,57.0,29.89,East,98,5.0,10.0,93,0.03,,---,0.12,16.00,VWS V14.01,2013-08-25 16:50:00,
2013-08-25 19:00:00,59.0,57.0,29.89,ENE,67,5.0,5.0,93,0.05,,---,0.13,14.00,VWS V14.01,2013-08-25 17:00:00,
2013-08-25 19:10:00,58.9,56.9,29.89,ENE,72,2.0,7.0,93,0.04,,---,0.13,11.00,VWS V14.01,2013-08-25 17:10:00,
2013-08-25 19:15:00,58.8,56.8,29.89,East,80,8.0,11.0,93,0.04,,---,0.14,7.00,VWS V14.01,2013-08-25 17:15:00,
2013-08-25 19:20:00,58.7,57.0,29.89,ENE,72,4.0,10.0,94,0.05,,---,0.15,7.00,VWS V14.01,2013-08-25 17:20:00,
2013-08-25 19:30:00,58.6,56.9,29.89,ENE,72,6.0,9.0,94,0.06,,---,0.17,0.00,VWS V14.01,2013-08-25 17:30:00,
2013-08-25 19:35:00,58.6,56.9,29.89,ENE,75,5.0,9.0,94,0.07,,---,0.18,0.00,VWS V14.01,2013-08-25 17:35:00,
2013-08-25 19:40:00,58.5,56.8,29.89,ENE,77,5.0,9.0,94,0.07,,---,0.19,0.00,VWS V14.01,2013-08-25 17:40:00,
2013-08-25 19:45:00,58.5,56.8,29.89,ENE,71,6.0,9.0,94,0.08,,---,0.20,0.00,VWS V14.01,2013-08-25 17:45:00,
2013-08-25 19:50:00,58.5,56.8,29.89,NE,46,3.0,9.0,94,0.10,,---,0.22,0.00,VWS V14.01,2013-08-25 17:50:00,
2013-08-25 19:55:00,58.4,56.7,29.89,ENE,76,4.0,9.0,94,0.11,,---,0.23,0.00,VWS V14.01,2013-08-25 17:55:00,
2013-08-25 20:00:00,58.4,56.7,29.89,ENE,68,9.0,9.0,94,0.12,,---,0.24,0.00,VWS V14.01,2013-08-25 18:00:00,
2013-08-25 20:10:00,58.3,56.6,29.89,NE,40,6.0,7.0,94,0.12,,---,0.25,0.00,VWS V14.01,2013-08-25 18:10:00,
2013-08-25 20:15:00,58.2,56.5,29.90,ENE,75,4.0,14.0,94,0.13,,---,0.26,0.00,VWS V14.01,2013-08-25 18:15:00,
2013-08-25 20:20:00,58.2,56.5,29.90,East,83,7.0,12.0,94,0.12,,---,0.26,0.00,VWS V14.01,2013-08-25 18:20:00,
2013-08-25 20:25:00,58.2,56.8,29.90,ENE,65,7.0,13.0,95,0.11,,---,0.26,0.00,VWS V14.01,2013-08-25 18:25:00,
2013-08-25 20:30:00,58.3,56.9,29.90,East,82,5.0,10.0,95,0.12,,---,0.28,0.00,VWS V14.01,2013-08-25 18:30:00,
2013-08-25 20:35:00,58.3,56.9,29.90,ENE,64,4.0,7.0,95,0.11,,---,0.28,0.00,VWS V14.01,2013-08-25 18:35:00,
2013-08-25 20:45:00,58.3,56.9,29.90,NE,54,7.0,7.0,95,0.10,,---,0.29,0.00,VWS V14.01,2013-08-25 18:45:00,
2013-08-25 20:50:00,58.3,56.9,29.90,ENE,76,5.0,7.0,95,0.09,,---,0.29,0.00,VWS V14.01,2013-08-25 18:50:00,
2013-08-25 20:55:00,58.3,56.9,29.90,NE,52,3.0,6.0,95,0.08,,---,0.30,0.00,VWS V14.01,2013-08-25 18:55:00,
2013-08-25 21:00:00,58.3,56.9,29.90,ENE,60,1.0,4.0,95,0.07,,---,0.30,0.00,VWS V14.01,2013-08-25 19:00:00,
2013-08-25 21:10:00,58.3,56.9,29.90,ENE,69,5.0,7.0,95,0.06,,---,0.31,0.00,VWS V14.01,2013-08-25 19:10:00,
2013-08-25 21:15:00,58.3,56.9,29.90,East,87,4.0,7.0,95,0.06,,---,0.31,0.00,VWS V14.01,2013-08-25 19:15:00,
2013-08-25 21:20:00,58.2,56.8,29.90,ENE,65,3.0,6.0,95,0.06,,---,0.32,0.00,VWS V14.01,2013-08-25 19:20:00,
2013-08-25 21:30:00,58.2,56.8,29.90,NE,53,2.0,6.0,95,0.06,,---,0.32,0.00,VWS V14.01,2013-08-25 19:30:00,
2013-08-25 21:35:00,58.2,56.8,29.90,NE,38,0.0,8.0,95,0.06,,---,0.33,0.00,VWS V14.01,2013-08-25 19:35:00,
2013-08-25 21:40:00,58.2,56.8,29.90,ENE,69,11.0,11.0,95,0.06,,---,0.34,0.00,VWS V14.01,2013-08-25 19:40:00,
2013-08-25 21:50:00,58.1,56.7,29.90,ENE,62,3.0,6.0,95,0.06,,---,0.35,0.00,VWS V14.01,2013-08-25 19:50:00,
2013-08-25 21:55:00,58.1,56.7,29.90,NE,53,3.0,5.0,95,0.06,,---,0.35,0.00,VWS V14.01,2013-08-25 19:55:00,
2013-08-25 22:00:00,58.0,56.6,29.90,ENE,69,5.0,7.0,95,0.06,,---,0.35,0.00,VWS V14.01,2013-08-25 20:00:00,
2013-08-25 22:10:00,58.0,56.6,29.90,NE,56,4.0,7.0,95,0.06,,---,0.36,0.00,VWS V14.01,2013-08-25 20:10:00,
2013-08-25 22:15:00,58.0,56.6,29.90,NE,47,3.0,11.0,95,0.06,,---,0.37,0.00,VWS V14.01,2013-08-25 20:15:00,
2013-08-25 22:25:00,57.9,56.5,29.90,ENE,77,7.0,7.0,95,0.06,,---,0.39,0.00,VWS V14.01,2013-08-25 20:25:00,
2013-08-25 22:35:00,57.8,56.4,29.90,ENE,61,3.0,7.0,95,0.07,,---,0.39,0.00,VWS V14.01,2013-08-25 20:35:00,
2013-08-25 22:40:00,57.8,56.4,29.90,ENE,71,6.0,10.0,95,0.07,,---,0.40,0.00,VWS V14.01,2013-08-25 20:40:00,
2013-08-25 22:45:00,57.7,56.3,29.90,ENE,59,0.0,5.0,95,0.06,,---,0.40,0.00,VWS V14.01,2013-08-25 20:45:00,
2013-08-25 22:55:00,57.8,56.7,29.90,ENE,57,3.0,5.0,96,0.07,,---,0.42,0.00,VWS V14.01,2013-08-25 20:55:00,
2013-08-25 23:00:00,57.8,56.7,29.90,NE,53,5.0,6.0,96,0.09,,---,0.43,0.00,VWS V14.01,2013-08-25 21:00:00,
2013-08-25 23:10:00,57.8,56.7,29.90,ENE,61,6.0,6.0,96,0.09,,---,0.45,0.00,VWS V14.01,2013-08-25 21:10:00,
2013-08-25 23:15:00,57.7,56.3,29.90,ENE,76,3.0,8.0,95,0.09,,---,0.45,0.00,VWS V14.01,2013-08-25 21:15:00,
2013-08-25 23:20:00,57.7,56.3,29.90,ESE,102,4.0,7.0,95,0.08,,---,0.45,0.00,VWS V14.01,2013-08-25 21:20:00,
2013-08-25 23:25:00,57.7,56.3,29.90,NE,46,2.0,5.0,95,0.07,,---,0.45,0.00,VWS V14.01,2013-08-25 21:25:00,
2013-08-25 23:30:00,57.7,56.3,29.90,ENE,74,4.0,7.0,95,0.07,,---,0.46,0.00,VWS V14.01,2013-08-25 21:30:00,
2013-08-25 23:35:00,57.6,56.2,29.90,ENE,74,4.0,5.0,95,0.06,,---,0.46,0.00,VWS V14.01,2013-08-25 21:35:00,
2013-08-25 23:45:00,57.6,56.2,29.90,ENE,69,3.0,5.0,95,0.06,,---,0.46,0.00,VWS V14.01,2013-08-25 21:45:00,
2013-08-25 23:50:00,57.6,56.2,29.90,ENE,69,0.0,3.0,95,0.06,,---,0.46,0.00,VWS V14.01,2013-08-25 21:50:00,
2013-08-25 23:55:00,57.6,56.2,29.90,ENE,70,2.0,4.0,95,0.06,,---,0.47,0.00,VWS V14.01,2013-08-25 21:55:00,